Ruff, Washington
Current Conditions -  °F | °C
As of 3:52 PM on Saturday 22 Nov 2014 (Local Time) from KMWH Reporting Station
Broken Clouds Broken Clouds  
Wind Chill: 39°   Ceiling: 10000
Heat Index: 44°   Visibility: 10mi
Dew Point: 35°   Wind: 10mph
Humidity: 71%   Direction: 210°SSW
Pressure: 29.8"   Gusts: NA
Location:  47.3463°N, 119.014°W
Report Text: KMWH 222352Z 21009KT 10SM BKN100 BKN120 07/02 A2980 RMK AO2 SLP098 T00670017 10072 20061 53023
Loading
Personal Weather Stations






























Interactive Weather Map New forecast layout! Learn more

10-Day Weather Forecast

Advertisements
Track Severe Weather on mobile